MSC Clorinda — 3FDW7 — position and weather

sailwx.info

Track history (hours):
 
Tides and Currents Weather Stations Pressure Air Temp Water Temp Dewpoint Dewpoint Depression Visibility Wind Speed Wind Dir Waves Ship Positions

MSC Clorinda

Last reported at 2015-Mar-27 08:14 UTC. Time now 2015-Mar-31 15:29 UTC.
Position N 38°47' E 004°07'.

Length 366 m; draft 12.8 m.

Type: Ship (hazmat cat A). MMSI: 373233000.

Date/timePositionNaut miles runAvg speedWind from/ knotsBaromVisibWave heightAir tempDewpointWater temp
2015-Mar-27 08:14N 38°47' E 004°07'1519.5
2015-Mar-27 07:28N 38°50' E 003°48'1819.4
2015-Mar-27 06:33N 38°55' E 003°26'1919.4
2015-Mar-27 05:33N 38°60' E 003°02'1919.5
2015-Mar-27 04:33N 39°03' E 002°37'2019.5
2015-Mar-27 03:33N 39°06' E 002°12'2019.5
2015-Mar-27 02:33N 39°10' E 001°48'2019.6
2015-Mar-27 01:33N 39°13' E 001°23'2019.5
2015-Mar-27 00:33N 39°16' E 000°58'5819.4
2015-Mar-26 21:33N 39°25' W 000°17'2 2.4
2015-Mar-26 20:31N 39°26' W 000°20'0 0.0
2015-Mar-26 19:31N 39°26' W 000°20'0 0.0
2015-Mar-26 18:32N 39°26' W 000°20'0 0.0
2015-Mar-26 15:31N 39°26' W 000°20'0 0.0
2015-Mar-26 14:31N 39°26' W 000°20'0 0.0
2015-Mar-26 13:32N 39°26' W 000°20'0 0.0
2015-Mar-26 12:31N 39°26' W 000°20'0 0.0
2015-Mar-26 11:31N 39°26' W 000°20'0 0.0
2015-Mar-26 10:31N 39°26' W 000°20'0 0.0
2015-Mar-26 09:31N 39°26' W 000°20'0 0.0
2015-Mar-26 08:28N 39°26' W 000°20'0 0.0
2015-Mar-26 07:22N 39°26' W 000°20'0 0.0
2015-Mar-26 06:23N 39°26' W 000°20'0 0.0
2015-Mar-26 05:31N 39°26' W 000°20'0 0.0
2015-Mar-26 04:31N 39°26' W 000°20'0 0.0
2015-Mar-26 03:31N 39°26' W 000°20'0 0.0
2015-Mar-26 02:13N 39°26' W 000°20'0 0.0
2015-Mar-26 01:31N 39°26' W 000°20'0 0.0
2015-Mar-26 00:19N 39°26' W 000°20'0 0.0
2015-Mar-25 23:31N 39°26' W 000°20'0 0.0
2015-Mar-25 22:28N 39°26' W 000°20'0 0.0
2015-Mar-25 21:31N 39°26' W 000°20'0 0.0
2015-Mar-25 20:30N 39°26' W 000°20'0 0.0
2015-Mar-25 19:31N 39°26' W 000°20'0 0.0
2015-Mar-25 18:33N 39°26' W 000°20'0 0.0
2015-Mar-25 17:33N 39°26' W 000°20'0 0.0
2015-Mar-25 16:33N 39°26' W 000°20'0 0.0
2015-Mar-25 15:33N 39°26' W 000°20'0 0.0
2015-Mar-25 14:33N 39°26' W 000°20'0 0.0
2015-Mar-25 13:33N 39°26' W 000°20'0 0.0
2015-Mar-25 12:33N 39°26' W 000°20'4 3.5
2015-Mar-25 11:33N 39°25' W 000°15'4 3.7
2015-Mar-25 10:33N 39°27' W 000°12'5618.4
2015-Mar-25 07:29N 40°06' E 000°41'1819.1
2015-Mar-25 06:33N 40°18' E 000°58'1919.2
2015-Mar-25 05:33N 40°31' E 001°17'1919.1
2015-Mar-25 04:33N 40°45' E 001°34'1919.2
2015-Mar-25 03:33N 40°59' E 001°51'1919.2
2015-Mar-25 02:33N 41°14' E 002°08'5 0.3
2015-Mar-24 12:19N 41°19' E 002°09'8 4.6
2015-Mar-24 10:34N 41°13' E 002°16'2 2.5
2015-Mar-24 09:33N 41°12' E 002°19'2 2.0
2015-Mar-24 08:33N 41°13' E 002°21'2 2.1
2015-Mar-24 07:33N 41°14' E 002°19'3 2.5
2015-Mar-24 06:33N 41°15' E 002°16'2 2.1
2015-Mar-24 05:33N 41°16' E 002°18'1 0.7
2015-Mar-24 04:33N 41°16' E 002°18'4 1.5
2015-Mar-24 02:10N 41°16' E 002°22'4 6.7
2015-Mar-24 01:33N 41°14' E 002°17'1 1.0
2015-Mar-24 00:33N 41°14' E 002°19'2 2.2
2015-Mar-23 23:34N 41°14' E 002°22'2 1.8
2015-Mar-23 22:33N 41°16' E 002°23'1510.9
2015-Mar-23 21:12N 41°21' E 002°41'6019.2
2015-Mar-23 18:04N 41°54' E 003°48'1818.6
2015-Mar-23 17:07N 42°07' E 004°06'1419.4
2015-Mar-23 16:24N 42°18' E 004°15'1619.3
2015-Mar-23 15:33N 42°32' E 004°27'2020.0
2015-Mar-23 14:33N 42°49' E 004°42'2019.7
2015-Mar-23 13:31N 43°06' E 004°56'1616.3
2015-Mar-23 12:33N 43°22' E 004°58'6 6.0
2015-Mar-23 11:30N 43°25' E 004°50'0 0.0
2015-Mar-23 10:33N 43°25' E 004°50'0 0.0
2015-Mar-23 09:34N 43°25' E 004°50'0 0.0
2015-Mar-23 08:30N 43°25' E 004°50'0 0.0
2015-Mar-23 07:33N 43°25' E 004°50'0 0.0
2015-Mar-23 06:33N 43°25' E 004°50'0 0.0
2015-Mar-23 05:33N 43°25' E 004°50'0 0.0
2015-Mar-23 04:30N 43°25' E 004°50'0 0.0
2015-Mar-23 03:33N 43°25' E 004°50'0 0.0
2015-Mar-23 02:33N 43°25' E 004°50'0 0.0
2015-Mar-23 01:33N 43°25' E 004°50'0 0.0
2015-Mar-23 00:33N 43°25' E 004°50'0 0.0
2015-Mar-22 23:33N 43°25' E 004°50'0 0.0
2015-Mar-22 22:33N 43°25' E 004°50'0 0.0
2015-Mar-22 21:30N 43°25' E 004°50'0 0.0
2015-Mar-22 20:33N 43°25' E 004°50'0 0.0
2015-Mar-22 19:33N 43°25' E 004°50'0 0.0
2015-Mar-22 18:33N 43°25' E 004°50'0 0.0
2015-Mar-22 17:33N 43°25' E 004°50'0 0.0
2015-Mar-22 16:33N 43°25' E 004°50'0 0.0
2015-Mar-22 15:33N 43°25' E 004°50'0 0.0
2015-Mar-22 14:33N 43°25' E 004°50'0 0.0
2015-Mar-22 13:33N 43°25' E 004°50'0 0.0
2015-Mar-22 12:33N 43°25' E 004°50'0 0.0
2015-Mar-22 11:33N 43°25' E 004°50'0 0.0
2015-Mar-22 10:33N 43°25' E 004°50'0 0.0
2015-Mar-22 09:33N 43°25' E 004°50'0 0.0
2015-Mar-22 08:30N 43°25' E 004°50'0 0.0
2015-Mar-22 07:33N 43°25' E 004°50'0 0.0
2015-Mar-22 06:33N 43°25' E 004°50'0 0.0
2015-Mar-22 05:33N 43°25' E 004°50'0 0.0
2015-Mar-22 04:33N 43°25' E 004°50'2 1.7
2015-Mar-22 03:33N 43°24' E 004°52'9 9.1
2015-Mar-22 02:34N 43°17' E 005°00'6320.1
2015-Mar-21 23:25N 42°47' E 006°16'2023.2
2015-Mar-21 22:33N 42°51' E 006°43'2323.3
2015-Mar-21 21:33N 43°01' E 007°11'2423.1
2015-Mar-21 20:32N 43°11' E 007°41'4321.8
2015-Mar-21 18:33N 43°45' E 008°18'2323.0
2015-Mar-21 17:33N 44°06' E 008°31'2020.3
2015-Mar-21 16:33N 44°24' E 008°44'3 2.8
2015-Mar-21 15:31N 44°25' E 008°48'0 0.0
2015-Mar-21 14:31N 44°25' E 008°48'0 0.0
2015-Mar-21 13:31N 44°25' E 008°48'0 0.0
2015-Mar-21 12:28N 44°25' E 008°48'0 0.0
2015-Mar-21 11:28N 44°25' E 008°48'0 0.0
2015-Mar-21 10:31N 44°25' E 008°48'0 0.0
2015-Mar-21 09:31N 44°25' E 008°48'0 0.0
2015-Mar-21 08:33N 44°25' E 008°48'0 0.0
2015-Mar-21 07:33N 44°25' E 008°48'0 0.0
2015-Mar-21 06:33N 44°25' E 008°48'0 0.0
2015-Mar-21 05:33N 44°25' E 008°48'0 0.0
2015-Mar-21 04:33N 44°25' E 008°48'0 0.0
2015-Mar-21 03:33N 44°25' E 008°48'0 0.0
2015-Mar-21 02:33N 44°25' E 008°48'0 0.0
2015-Mar-21 01:33N 44°25' E 008°48'0 0.0
2015-Mar-21 00:33N 44°25' E 008°48'0 0.0
2015-Mar-20 23:33N 44°25' E 008°48'0 0.0
2015-Mar-20 22:33N 44°25' E 008°48'0 0.0
2015-Mar-20 21:33N 44°25' E 008°48'0 0.0
2015-Mar-20 20:33N 44°25' E 008°48'0 0.0
2015-Mar-20 19:33N 44°25' E 008°48'0 0.0
2015-Mar-20 18:33N 44°25' E 008°48'0 0.0
2015-Mar-20 17:33N 44°25' E 008°48'0 0.0
2015-Mar-20 16:33N 44°25' E 008°48'0 0.0
2015-Mar-20 15:33N 44°25' E 008°48'0 0.0
2015-Mar-20 14:33N 44°25' E 008°48'0 0.0
2015-Mar-20 13:33N 44°25' E 008°48'0 0.0
2015-Mar-20 12:33N 44°25' E 008°48'0 0.0
2015-Mar-20 11:33N 44°25' E 008°48'0 0.0
2015-Mar-20 10:33N 44°25' E 008°48'1 1.1
2015-Mar-20 09:33N 44°25' E 008°46'4 3.8
2015-Mar-20 08:33N 44°22' E 008°44'7 6.6
2015-Mar-20 07:33N 44°17' E 008°50'8 7.6
2015-Mar-20 06:33N 44°13' E 008°59'9 8.8
2015-Mar-20 05:33N 44°08' E 009°09'9 9.0
2015-Mar-20 04:33N 44°03' E 009°20'9 8.6
2015-Mar-20 03:33N 43°58' E 009°30'8 8.0
2015-Mar-20 02:33N 43°55' E 009°40'9 8.5
2015-Mar-20 01:33N 43°59' E 009°50'7 7.0
2015-Mar-20 00:33N 44°06' E 009°51'0 0.4
2015-Mar-19 23:33N 44°06' E 009°51'0 0.0
2015-Mar-19 22:33N 44°06' E 009°51'0 0.0
2015-Mar-19 21:33N 44°06' E 009°51'0 0.0
2015-Mar-19 20:33N 44°06' E 009°51'0 0.0
2015-Mar-19 19:33N 44°06' E 009°51'0 0.0
2015-Mar-19 18:33N 44°06' E 009°51'0 0.0
2015-Mar-19 17:33N 44°06' E 009°51'0 0.0
2015-Mar-19 16:33N 44°06' E 009°51'0 0.0
2015-Mar-19 15:33N 44°06' E 009°51'0 0.0
2015-Mar-19 14:33N 44°06' E 009°51'0 0.0
2015-Mar-19 13:33N 44°06' E 009°51'0 0.0
2015-Mar-19 12:33N 44°06' E 009°51'0 0.0
2015-Mar-19 11:33N 44°06' E 009°51'0 0.0
2015-Mar-19 10:33N 44°06' E 009°51'0 0.0
2015-Mar-19 09:33N 44°06' E 009°51'0 0.0
2015-Mar-19 08:33N 44°06' E 009°51'0 0.0
2015-Mar-19 07:33N 44°06' E 009°51'0 0.0
2015-Mar-19 06:33N 44°06' E 009°51'0 0.2
2015-Mar-19 05:33N 44°06' E 009°51'7 6.7
2015-Mar-19 04:33N 44°01' E 009°56'7 7.2
2015-Mar-19 03:33N 43°54' E 010°00'8 7.9
2015-Mar-19 02:33N 43°46' E 010°03'1212.3
2015-Mar-19 01:33N 43°34' E 010°04'1313.3
2015-Mar-19 00:33N 43°21' E 010°04'1313.2
2015-Mar-18 23:33N 43°08' E 010°03'1312.7
2015-Mar-18 22:33N 42°55' E 009°59'6312.0
2015-Mar-18 17:20N 41°55' E 010°22'  
Track history (hours):
 
Tides and Currents Weather Stations Pressure Air Temp Water Temp Dewpoint Dewpoint Depression Visibility Wind Speed Wind Dir Waves Ship Positions

MSC Clorinda

Last reported at 2015-Mar-27 08:14 UTC. Time now 2015-Mar-31 15:29 UTC.
Position N 38°47' E 004°07'.

Length 366 m; draft 12.8 m.

Type: Ship (hazmat cat A). MMSI: 373233000.

Date/timePositionNaut miles runAvg speedWind from/ knotsBaromVisibWave heightAir tempDewpointWater temp
2015-Mar-27 08:14N 38°47' E 004°07'1519.5
2015-Mar-27 07:28N 38°50' E 003°48'1819.4
2015-Mar-27 06:33N 38°55' E 003°26'1919.4
2015-Mar-27 05:33N 38°60' E 003°02'1919.5
2015-Mar-27 04:33N 39°03' E 002°37'2019.5
2015-Mar-27 03:33N 39°06' E 002°12'2019.5
2015-Mar-27 02:33N 39°10' E 001°48'2019.6
2015-Mar-27 01:33N 39°13' E 001°23'2019.5
2015-Mar-27 00:33N 39°16' E 000°58'5819.4
2015-Mar-26 21:33N 39°25' W 000°17'2 2.4
2015-Mar-26 20:31N 39°26' W 000°20'0 0.0
2015-Mar-26 19:31N 39°26' W 000°20'0 0.0
2015-Mar-26 18:32N 39°26' W 000°20'0 0.0
2015-Mar-26 15:31N 39°26' W 000°20'0 0.0
2015-Mar-26 14:31N 39°26' W 000°20'0 0.0
2015-Mar-26 13:32N 39°26' W 000°20'0 0.0
2015-Mar-26 12:31N 39°26' W 000°20'0 0.0
2015-Mar-26 11:31N 39°26' W 000°20'0 0.0
2015-Mar-26 10:31N 39°26' W 000°20'0 0.0
2015-Mar-26 09:31N 39°26' W 000°20'0 0.0
2015-Mar-26 08:28N 39°26' W 000°20'0 0.0
2015-Mar-26 07:22N 39°26' W 000°20'0 0.0
2015-Mar-26 06:23N 39°26' W 000°20'0 0.0
2015-Mar-26 05:31N 39°26' W 000°20'0 0.0
2015-Mar-26 04:31N 39°26' W 000°20'0 0.0
2015-Mar-26 03:31N 39°26' W 000°20'0 0.0
2015-Mar-26 02:13N 39°26' W 000°20'0 0.0
2015-Mar-26 01:31N 39°26' W 000°20'0 0.0
2015-Mar-26 00:19N 39°26' W 000°20'0 0.0
2015-Mar-25 23:31N 39°26' W 000°20'0 0.0
2015-Mar-25 22:28N 39°26' W 000°20'0 0.0
2015-Mar-25 21:31N 39°26' W 000°20'0 0.0
2015-Mar-25 20:30N 39°26' W 000°20'0 0.0
2015-Mar-25 19:31N 39°26' W 000°20'0 0.0
2015-Mar-25 18:33N 39°26' W 000°20'0 0.0
2015-Mar-25 17:33N 39°26' W 000°20'0 0.0
2015-Mar-25 16:33N 39°26' W 000°20'0 0.0
2015-Mar-25 15:33N 39°26' W 000°20'0 0.0
2015-Mar-25 14:33N 39°26' W 000°20'0 0.0
2015-Mar-25 13:33N 39°26' W 000°20'0 0.0
2015-Mar-25 12:33N 39°26' W 000°20'4 3.5
2015-Mar-25 11:33N 39°25' W 000°15'4 3.7
2015-Mar-25 10:33N 39°27' W 000°12'5618.4
2015-Mar-25 07:29N 40°06' E 000°41'1819.1
2015-Mar-25 06:33N 40°18' E 000°58'1919.2
2015-Mar-25 05:33N 40°31' E 001°17'1919.1
2015-Mar-25 04:33N 40°45' E 001°34'1919.2
2015-Mar-25 03:33N 40°59' E 001°51'1919.2
2015-Mar-25 02:33N 41°14' E 002°08'5 0.3
2015-Mar-24 12:19N 41°19' E 002°09'8 4.6
2015-Mar-24 10:34N 41°13' E 002°16'2 2.5
2015-Mar-24 09:33N 41°12' E 002°19'2 2.0
2015-Mar-24 08:33N 41°13' E 002°21'2 2.1
2015-Mar-24 07:33N 41°14' E 002°19'3 2.5
2015-Mar-24 06:33N 41°15' E 002°16'2 2.1
2015-Mar-24 05:33N 41°16' E 002°18'1 0.7
2015-Mar-24 04:33N 41°16' E 002°18'4 1.5
2015-Mar-24 02:10N 41°16' E 002°22'4 6.7
2015-Mar-24 01:33N 41°14' E 002°17'1 1.0
2015-Mar-24 00:33N 41°14' E 002°19'2 2.2
2015-Mar-23 23:34N 41°14' E 002°22'2 1.8
2015-Mar-23 22:33N 41°16' E 002°23'1510.9
2015-Mar-23 21:12N 41°21' E 002°41'6019.2
2015-Mar-23 18:04N 41°54' E 003°48'1818.6
2015-Mar-23 17:07N 42°07' E 004°06'1419.4
2015-Mar-23 16:24N 42°18' E 004°15'1619.3
2015-Mar-23 15:33N 42°32' E 004°27'2020.0
2015-Mar-23 14:33N 42°49' E 004°42'2019.7
2015-Mar-23 13:31N 43°06' E 004°56'1616.3
2015-Mar-23 12:33N 43°22' E 004°58'6 6.0
2015-Mar-23 11:30N 43°25' E 004°50'0 0.0
2015-Mar-23 10:33N 43°25' E 004°50'0 0.0
2015-Mar-23 09:34N 43°25' E 004°50'0 0.0
2015-Mar-23 08:30N 43°25' E 004°50'0 0.0
2015-Mar-23 07:33N 43°25' E 004°50'0 0.0
2015-Mar-23 06:33N 43°25' E 004°50'0 0.0
2015-Mar-23 05:33N 43°25' E 004°50'0 0.0
2015-Mar-23 04:30N 43°25' E 004°50'0 0.0
2015-Mar-23 03:33N 43°25' E 004°50'0 0.0
2015-Mar-23 02:33N 43°25' E 004°50'0 0.0
2015-Mar-23 01:33N 43°25' E 004°50'0 0.0
2015-Mar-23 00:33N 43°25' E 004°50'0 0.0
2015-Mar-22 23:33N 43°25' E 004°50'0 0.0
2015-Mar-22 22:33N 43°25' E 004°50'0 0.0
2015-Mar-22 21:30N 43°25' E 004°50'0 0.0
2015-Mar-22 20:33N 43°25' E 004°50'0 0.0
2015-Mar-22 19:33N 43°25' E 004°50'0 0.0
2015-Mar-22 18:33N 43°25' E 004°50'0 0.0
2015-Mar-22 17:33N 43°25' E 004°50'0 0.0
2015-Mar-22 16:33N 43°25' E 004°50'0 0.0
2015-Mar-22 15:33N 43°25' E 004°50'0 0.0
2015-Mar-22 14:33N 43°25' E 004°50'0 0.0
2015-Mar-22 13:33N 43°25' E 004°50'0 0.0
2015-Mar-22 12:33N 43°25' E 004°50'0 0.0
2015-Mar-22 11:33N 43°25' E 004°50'0 0.0
2015-Mar-22 10:33N 43°25' E 004°50'0 0.0
2015-Mar-22 09:33N 43°25' E 004°50'0 0.0
2015-Mar-22 08:30N 43°25' E 004°50'0 0.0
2015-Mar-22 07:33N 43°25' E 004°50'0 0.0
2015-Mar-22 06:33N 43°25' E 004°50'0 0.0
2015-Mar-22 05:33N 43°25' E 004°50'0 0.0
2015-Mar-22 04:33N 43°25' E 004°50'2 1.7
2015-Mar-22 03:33N 43°24' E 004°52'9 9.1
2015-Mar-22 02:34N 43°17' E 005°00'6320.1
2015-Mar-21 23:25N 42°47' E 006°16'2023.2
2015-Mar-21 22:33N 42°51' E 006°43'2323.3
2015-Mar-21 21:33N 43°01' E 007°11'2423.1
2015-Mar-21 20:32N 43°11' E 007°41'4321.8
2015-Mar-21 18:33N 43°45' E 008°18'2323.0
2015-Mar-21 17:33N 44°06' E 008°31'2020.3
2015-Mar-21 16:33N 44°24' E 008°44'3 2.8
2015-Mar-21 15:31N 44°25' E 008°48'0 0.0
2015-Mar-21 14:31N 44°25' E 008°48'0 0.0
2015-Mar-21 13:31N 44°25' E 008°48'0 0.0
2015-Mar-21 12:28N 44°25' E 008°48'0 0.0
2015-Mar-21 11:28N 44°25' E 008°48'0 0.0
2015-Mar-21 10:31N 44°25' E 008°48'0 0.0
2015-Mar-21 09:31N 44°25' E 008°48'0 0.0
2015-Mar-21 08:33N 44°25' E 008°48'0 0.0
2015-Mar-21 07:33N 44°25' E 008°48'0 0.0
2015-Mar-21 06:33N 44°25' E 008°48'0 0.0
2015-Mar-21 05:33N 44°25' E 008°48'0 0.0
2015-Mar-21 04:33N 44°25' E 008°48'0 0.0
2015-Mar-21 03:33N 44°25' E 008°48'0 0.0
2015-Mar-21 02:33N 44°25' E 008°48'0 0.0
2015-Mar-21 01:33N 44°25' E 008°48'0 0.0
2015-Mar-21 00:33N 44°25' E 008°48'0 0.0
2015-Mar-20 23:33N 44°25' E 008°48'0 0.0
2015-Mar-20 22:33N 44°25' E 008°48'0 0.0
2015-Mar-20 21:33N 44°25' E 008°48'0 0.0
2015-Mar-20 20:33N 44°25' E 008°48'0 0.0
2015-Mar-20 19:33N 44°25' E 008°48'0 0.0
2015-Mar-20 18:33N 44°25' E 008°48'0 0.0
2015-Mar-20 17:33N 44°25' E 008°48'0 0.0
2015-Mar-20 16:33N 44°25' E 008°48'0 0.0
2015-Mar-20 15:33N 44°25' E 008°48'0 0.0
2015-Mar-20 14:33N 44°25' E 008°48'0 0.0
2015-Mar-20 13:33N 44°25' E 008°48'0 0.0
2015-Mar-20 12:33N 44°25' E 008°48'0 0.0
2015-Mar-20 11:33N 44°25' E 008°48'0 0.0
2015-Mar-20 10:33N 44°25' E 008°48'1 1.1
2015-Mar-20 09:33N 44°25' E 008°46'4 3.8
2015-Mar-20 08:33N 44°22' E 008°44'7 6.6
2015-Mar-20 07:33N 44°17' E 008°50'8 7.6
2015-Mar-20 06:33N 44°13' E 008°59'9 8.8
2015-Mar-20 05:33N 44°08' E 009°09'9 9.0
2015-Mar-20 04:33N 44°03' E 009°20'9 8.6
2015-Mar-20 03:33N 43°58' E 009°30'8 8.0
2015-Mar-20 02:33N 43°55' E 009°40'9 8.5
2015-Mar-20 01:33N 43°59' E 009°50'7 7.0
2015-Mar-20 00:33N 44°06' E 009°51'0 0.4
2015-Mar-19 23:33N 44°06' E 009°51'0 0.0
2015-Mar-19 22:33N 44°06' E 009°51'0 0.0
2015-Mar-19 21:33N 44°06' E 009°51'0 0.0
2015-Mar-19 20:33N 44°06' E 009°51'0 0.0
2015-Mar-19 19:33N 44°06' E 009°51'0 0.0
2015-Mar-19 18:33N 44°06' E 009°51'0 0.0
2015-Mar-19 17:33N 44°06' E 009°51'0 0.0
2015-Mar-19 16:33N 44°06' E 009°51'0 0.0
2015-Mar-19 15:33N 44°06' E 009°51'0 0.0
2015-Mar-19 14:33N 44°06' E 009°51'0 0.0
2015-Mar-19 13:33N 44°06' E 009°51'0 0.0
2015-Mar-19 12:33N 44°06' E 009°51'0 0.0
2015-Mar-19 11:33N 44°06' E 009°51'0 0.0
2015-Mar-19 10:33N 44°06' E 009°51'0 0.0
2015-Mar-19 09:33N 44°06' E 009°51'0 0.0
2015-Mar-19 08:33N 44°06' E 009°51'0 0.0
2015-Mar-19 07:33N 44°06' E 009°51'0 0.0
2015-Mar-19 06:33N 44°06' E 009°51'0 0.2
2015-Mar-19 05:33N 44°06' E 009°51'7 6.7
2015-Mar-19 04:33N 44°01' E 009°56'7 7.2
2015-Mar-19 03:33N 43°54' E 010°00'8 7.9
2015-Mar-19 02:33N 43°46' E 010°03'1212.3
2015-Mar-19 01:33N 43°34' E 010°04'1313.3
2015-Mar-19 00:33N 43°21' E 010°04'1313.2
2015-Mar-18 23:33N 43°08' E 010°03'1312.7
2015-Mar-18 22:33N 42°55' E 009°59'6312.0
2015-Mar-18 17:20N 41°55' E 010°22'  

Dump ship's entire track history